Kezdőlap
METAR-TAF:

METAR-TAF

Repülőterek :

Sanghaj-Putungi nemzetközi repülőtér

Sanghaj-Pudong, Kína

földrajzi szélesség: 31-07N, földrajzi hosszúság: 121-46E, magasság: 4 m

Jelenlegi meteorológiai megfigyelések

A jelentés 16 perccel ezelõtt készült, 19:30 UTC
Észak-északnyugati szél 21 kt
Hőmérséklet 14°C
Páratartalom 77%
Légköri nyomás 1022 hPa
Látótávolság 10 km, vagy több
Kevés felhő 2000 lábon
Borult 4000 lábon

METAR: ZSPD 171930Z 34011MPS 9999 FEW020 OVC040 14/10 Q1022 NOSIG

Idő: 03:46 (19:46 UTC)

Előrejelzés

A jelentés 4 órával és 32 perccel ezelõtt készült, 15:14 UTC
Az előrejelzés 17-én 18 óra UTC és 18-én 18 óra UTC között érvényes
Észak-északnyugati szél 17 kt széllökések: 31 kt
Látótávolság: 6000 m
Szakadozott felhőzet 2000 lábon

TAF: ZSPD 171514Z 1718/1818 33009G16MPS 6000 BKN020 TX19/1718Z TN05/1817Z

Meteorológiai megfigyelések és előrejelzések több, mint 4000 repülőtéren (METAR és TAF jelentéseket).

A térképen piros és sárga pontok jelzik az elérhető meteorológiai állomásokat.

Mozgassa az egeret a pont fölött, hogy megjelenjen az állomás neve.

Azután kattintson az időjárási megfigyelések és előrejelzések megtekintéséhez.

A térkép megváltoztatása: kattintson a fekete keresztel jelölt zöld gombra ráközelítéshez, a vonallal jelölt zöld gombra távolításhoz, vagy a zöld nyilakra a szomszédos térképek eléréséhez.


METAR-TAF: